sensor_id;sensor_type;location;lat;lon;timestamp;P1;durP1;ratioP1;P2;durP2;ratioP2
34960;SDS011;30789;52.030;7.110;2022-07-22T00:00:15;3.40;;;1.80;;
34960;SDS011;30789;52.030;7.110;2022-07-22T00:02:43;3.28;;;2.00;;
34960;SDS011;30789;52.030;7.110;2022-07-22T00:05:09;2.88;;;1.70;;
34960;SDS011;30789;52.030;7.110;2022-07-22T00:07:36;3.40;;;1.90;;
34960;SDS011;30789;52.030;7.110;2022-07-22T00:10:03;2.45;;;2.05;;
34960;SDS011;30789;52.030;7.110;2022-07-22T00:12:29;4.53;;;2.10;;
34960;SDS011;30789;52.030;7.110;2022-07-22T00:14:56;3.15;;;2.30;;
34960;SDS011;30789;52.030;7.110;2022-07-22T00:17:22;3.00;;;2.47;;
34960;SDS011;30789;52.030;7.110;2022-07-22T00:19:50;4.38;;;2.72;;
34960;SDS011;30789;52.030;7.110;2022-07-22T00:22:16;6.03;;;2.33;;
34960;SDS011;30789;52.030;7.110;2022-07-22T00:24:42;4.55;;;2.25;;
34960;SDS011;30789;52.030;7.110;2022-07-22T00:27:09;5.90;;;2.60;;
34960;SDS011;30789;52.030;7.110;2022-07-22T00:29:35;6.65;;;2.40;;
34960;SDS011;30789;52.030;7.110;2022-07-22T00:32:01;5.75;;;2.30;;
34960;SDS011;30789;52.030;7.110;2022-07-22T00:34:28;3.38;;;1.92;;
34960;SDS011;30789;52.030;7.110;2022-07-22T00:36:55;4.72;;;1.88;;
34960;SDS011;30789;52.030;7.110;2022-07-22T00:39:22;3.55;;;2.42;;
34960;SDS011;30789;52.030;7.110;2022-07-22T00:41:48;6.18;;;2.15;;
34960;SDS011;30789;52.030;7.110;2022-07-22T00:44:14;6.38;;;2.58;;
34960;SDS011;30789;52.030;7.110;2022-07-22T00:46:41;4.38;;;2.40;;
34960;SDS011;30789;52.030;7.110;2022-07-22T00:49:08;5.50;;;2.58;;
34960;SDS011;30789;52.030;7.110;2022-07-22T00:51:34;4.78;;;2.40;;
34960;SDS011;30789;52.030;7.110;2022-07-22T00:54:04;5.50;;;2.75;;
34960;SDS011;30789;52.030;7.110;2022-07-22T00:56:30;2.72;;;2.45;;
34960;SDS011;30789;52.030;7.110;2022-07-22T00:58:57;5.32;;;2.47;;
34960;SDS011;30789;52.030;7.110;2022-07-22T01:01:25;7.53;;;2.67;;
34960;SDS011;30789;52.030;7.110;2022-07-22T01:03:51;4.68;;;2.80;;
34960;SDS011;30789;52.030;7.110;2022-07-22T01:06:17;5.50;;;2.78;;
34960;SDS011;30789;52.030;7.110;2022-07-22T01:08:44;5.30;;;2.45;;
34960;SDS011;30789;52.030;7.110;2022-07-22T01:11:12;6.57;;;2.05;;
34960;SDS011;30789;52.030;7.110;2022-07-22T01:13:40;6.85;;;1.98;;
34960;SDS011;30789;52.030;7.110;2022-07-22T01:16:07;3.83;;;2.53;;
34960;SDS011;30789;52.030;7.110;2022-07-22T01:18:34;3.30;;;2.08;;
34960;SDS011;30789;52.030;7.110;2022-07-22T01:21:03;6.07;;;2.05;;
34960;SDS011;30789;52.030;7.110;2022-07-22T01:23:29;4.13;;;2.25;;
34960;SDS011;30789;52.030;7.110;2022-07-22T01:25:55;4.95;;;2.47;;
34960;SDS011;30789;52.030;7.110;2022-07-22T01:28:22;3.53;;;2.13;;
34960;SDS011;30789;52.030;7.110;2022-07-22T01:30:48;4.88;;;2.15;;
34960;SDS011;30789;52.030;7.110;2022-07-22T01:33:15;5.18;;;2.20;;
34960;SDS011;30789;52.030;7.110;2022-07-22T01:35:42;5.53;;;2.50;;
34960;SDS011;30789;52.030;7.110;2022-07-22T01:38:10;3.80;;;2.25;;
34960;SDS011;30789;52.030;7.110;2022-07-22T01:40:36;3.00;;;2.28;;
34960;SDS011;30789;52.030;7.110;2022-07-22T01:43:02;3.92;;;2.20;;
34960;SDS011;30789;52.030;7.110;2022-07-22T01:45:29;3.45;;;1.95;;
34960;SDS011;30789;52.030;7.110;2022-07-22T01:47:55;2.92;;;1.90;;
34960;SDS011;30789;52.030;7.110;2022-07-22T01:50:21;3.25;;;2.10;;
34960;SDS011;30789;52.030;7.110;2022-07-22T01:52:48;3.47;;;2.05;;
34960;SDS011;30789;52.030;7.110;2022-07-22T01:55:16;6.47;;;2.30;;
34960;SDS011;30789;52.030;7.110;2022-07-22T01:57:42;3.78;;;2.10;;
34960;SDS011;30789;52.030;7.110;2022-07-22T02:00:09;7.05;;;2.67;;
34960;SDS011;30789;52.030;7.110;2022-07-22T02:02:36;4.00;;;2.58;;
34960;SDS011;30789;52.030;7.110;2022-07-22T02:05:03;5.97;;;2.45;;
34960;SDS011;30789;52.030;7.110;2022-07-22T02:07:29;5.63;;;2.60;;
34960;SDS011;30789;52.030;7.110;2022-07-22T02:09:56;3.30;;;2.40;;
34960;SDS011;30789;52.030;7.110;2022-07-22T02:12:23;4.53;;;2.35;;
34960;SDS011;30789;52.030;7.110;2022-07-22T02:14:50;3.85;;;2.40;;
34960;SDS011;30789;52.030;7.110;2022-07-22T02:17:16;3.40;;;2.45;;
34960;SDS011;30789;52.030;7.110;2022-07-22T02:19:43;6.13;;;2.28;;
34960;SDS011;30789;52.030;7.110;2022-07-22T02:22:09;5.45;;;2.45;;
34960;SDS011;30789;52.030;7.110;2022-07-22T02:24:36;3.45;;;2.55;;
34960;SDS011;30789;52.030;7.110;2022-07-22T02:27:02;4.32;;;2.13;;
34960;SDS011;30789;52.030;7.110;2022-07-22T02:29:30;6.93;;;2.80;;
34960;SDS011;30789;52.030;7.110;2022-07-22T02:31:57;7.07;;;2.70;;
34960;SDS011;30789;52.030;7.110;2022-07-22T02:34:24;9.10;;;2.38;;
34960;SDS011;30789;52.030;7.110;2022-07-22T02:36:50;6.28;;;2.45;;
34960;SDS011;30789;52.030;7.110;2022-07-22T02:39:17;5.38;;;2.38;;
34960;SDS011;30789;52.030;7.110;2022-07-22T02:41:43;6.47;;;2.65;;
34960;SDS011;30789;52.030;7.110;2022-07-22T02:44:09;6.45;;;2.45;;
34960;SDS011;30789;52.030;7.110;2022-07-22T02:46:37;6.97;;;3.00;;
34960;SDS011;30789;52.030;7.110;2022-07-22T02:49:03;7.78;;;2.30;;
34960;SDS011;30789;52.030;7.110;2022-07-22T02:51:30;3.55;;;2.15;;
34960;SDS011;30789;52.030;7.110;2022-07-22T02:53:56;3.63;;;2.22;;
34960;SDS011;30789;52.030;7.110;2022-07-22T02:56:23;7.07;;;2.85;;
34960;SDS011;30789;52.030;7.110;2022-07-22T02:58:49;2.53;;;2.25;;
34960;SDS011;30789;52.030;7.110;2022-07-22T03:01:18;9.63;;;2.75;;
34960;SDS011;30789;52.030;7.110;2022-07-22T03:03:46;5.35;;;1.90;;
34960;SDS011;30789;52.030;7.110;2022-07-22T03:06:12;5.30;;;2.28;;
34960;SDS011;30789;52.030;7.110;2022-07-22T03:08:39;10.80;;;2.10;;
34960;SDS011;30789;52.030;7.110;2022-07-22T03:11:05;9.10;;;2.22;;
34960;SDS011;30789;52.030;7.110;2022-07-22T03:13:32;8.10;;;2.67;;
34960;SDS011;30789;52.030;7.110;2022-07-22T03:15:58;10.15;;;3.05;;
34960;SDS011;30789;52.030;7.110;2022-07-22T03:18:24;3.58;;;2.17;;
34960;SDS011;30789;52.030;7.110;2022-07-22T03:20:52;3.65;;;2.20;;
34960;SDS011;30789;52.030;7.110;2022-07-22T03:23:18;5.47;;;2.45;;
34960;SDS011;30789;52.030;7.110;2022-07-22T03:25:45;6.00;;;2.20;;
34960;SDS011;30789;52.030;7.110;2022-07-22T03:28:11;5.70;;;2.20;;
34960;SDS011;30789;52.030;7.110;2022-07-22T03:30:37;2.65;;;2.08;;
34960;SDS011;30789;52.030;7.110;2022-07-22T03:33:03;4.88;;;2.15;;
34960;SDS011;30789;52.030;7.110;2022-07-22T03:35:30;5.13;;;2.67;;
34960;SDS011;30789;52.030;7.110;2022-07-22T03:37:57;7.18;;;2.78;;
34960;SDS011;30789;52.030;7.110;2022-07-22T03:40:24;5.68;;;2.17;;
34960;SDS011;30789;52.030;7.110;2022-07-22T03:42:50;3.55;;;2.30;;
34960;SDS011;30789;52.030;7.110;2022-07-22T03:45:16;3.63;;;2.15;;
34960;SDS011;30789;52.030;7.110;2022-07-22T03:47:43;5.53;;;2.92;;
34960;SDS011;30789;52.030;7.110;2022-07-22T03:50:09;6.20;;;2.42;;
34960;SDS011;30789;52.030;7.110;2022-07-22T03:52:35;5.78;;;2.10;;
34960;SDS011;30789;52.030;7.110;2022-07-22T03:55:04;8.10;;;2.67;;
34960;SDS011;30789;52.030;7.110;2022-07-22T03:57:31;8.00;;;2.75;;
34960;SDS011;30789;52.030;7.110;2022-07-22T03:59:57;4.00;;;2.15;;
34960;SDS011;30789;52.030;7.110;2022-07-22T04:02:23;6.10;;;2.40;;
34960;SDS011;30789;52.030;7.110;2022-07-22T04:04:49;5.53;;;2.60;;
34960;SDS011;30789;52.030;7.110;2022-07-22T04:07:16;5.75;;;2.20;;
34960;SDS011;30789;52.030;7.110;2022-07-22T04:09:42;5.93;;;2.58;;
34960;SDS011;30789;52.030;7.110;2022-07-22T04:12:10;8.15;;;2.40;;
34960;SDS011;30789;52.030;7.110;2022-07-22T04:14:36;9.63;;;2.80;;
34960;SDS011;30789;52.030;7.110;2022-07-22T04:17:02;5.47;;;2.38;;
34960;SDS011;30789;52.030;7.110;2022-07-22T04:19:29;5.22;;;2.35;;
34960;SDS011;30789;52.030;7.110;2022-07-22T04:21:55;5.10;;;2.30;;
34960;SDS011;30789;52.030;7.110;2022-07-22T04:24:21;6.22;;;2.58;;
34960;SDS011;30789;52.030;7.110;2022-07-22T04:26:47;2.97;;;2.13;;
34960;SDS011;30789;52.030;7.110;2022-07-22T04:29:15;4.53;;;2.38;;
34960;SDS011;30789;52.030;7.110;2022-07-22T04:31:41;6.63;;;2.65;;
34960;SDS011;30789;52.030;7.110;2022-07-22T04:34:08;3.30;;;2.33;;
34960;SDS011;30789;52.030;7.110;2022-07-22T04:36:34;5.30;;;1.77;;
34960;SDS011;30789;52.030;7.110;2022-07-22T04:39:00;4.82;;;2.50;;
34960;SDS011;30789;52.030;7.110;2022-07-22T04:41:26;7.05;;;2.45;;
34960;SDS011;30789;52.030;7.110;2022-07-22T04:43:53;9.45;;;2.75;;
34960;SDS011;30789;52.030;7.110;2022-07-22T04:46:21;4.60;;;2.25;;
34960;SDS011;30789;52.030;7.110;2022-07-22T04:48:47;3.55;;;1.73;;
34960;SDS011;30789;52.030;7.110;2022-07-22T04:51:13;3.22;;;2.28;;
34960;SDS011;30789;52.030;7.110;2022-07-22T04:53:40;4.38;;;2.30;;
34960;SDS011;30789;52.030;7.110;2022-07-22T04:56:06;5.40;;;2.40;;
34960;SDS011;30789;52.030;7.110;2022-07-22T04:58:33;2.65;;;2.10;;
34960;SDS011;30789;52.030;7.110;2022-07-22T05:00:59;4.32;;;2.65;;
34960;SDS011;30789;52.030;7.110;2022-07-22T05:03:27;6.15;;;2.40;;
34960;SDS011;30789;52.030;7.110;2022-07-22T05:05:53;5.25;;;2.40;;
34960;SDS011;30789;52.030;7.110;2022-07-22T05:08:19;4.38;;;2.50;;
34960;SDS011;30789;52.030;7.110;2022-07-22T05:10:46;5.40;;;2.35;;
34960;SDS011;30789;52.030;7.110;2022-07-22T05:13:12;5.50;;;2.40;;
34960;SDS011;30789;52.030;7.110;2022-07-22T05:15:39;4.63;;;2.35;;
34960;SDS011;30789;52.030;7.110;2022-07-22T05:18:05;3.88;;;2.05;;
34960;SDS011;30789;52.030;7.110;2022-07-22T05:20:32;6.70;;;2.38;;
34960;SDS011;30789;52.030;7.110;2022-07-22T05:22:59;2.88;;;1.80;;
34960;SDS011;30789;52.030;7.110;2022-07-22T05:25:25;4.32;;;2.38;;
34960;SDS011;30789;52.030;7.110;2022-07-22T05:27:52;4.45;;;1.73;;
34960;SDS011;30789;52.030;7.110;2022-07-22T05:30:19;7.95;;;1.83;;
34960;SDS011;30789;52.030;7.110;2022-07-22T05:32:45;6.32;;;1.92;;
34960;SDS011;30789;52.030;7.110;2022-07-22T05:35:12;6.57;;;2.03;;
34960;SDS011;30789;52.030;7.110;2022-07-22T05:37:39;4.35;;;1.77;;
34960;SDS011;30789;52.030;7.110;2022-07-22T05:40:06;6.75;;;2.30;;
34960;SDS011;30789;52.030;7.110;2022-07-22T05:42:33;3.50;;;1.83;;
34960;SDS011;30789;52.030;7.110;2022-07-22T05:44:59;4.07;;;2.00;;
34960;SDS011;30789;52.030;7.110;2022-07-22T05:47:25;5.05;;;2.38;;
34960;SDS011;30789;52.030;7.110;2022-07-22T05:49:51;5.30;;;1.85;;
34960;SDS011;30789;52.030;7.110;2022-07-22T05:52:18;4.53;;;1.77;;
34960;SDS011;30789;52.030;7.110;2022-07-22T05:54:46;4.90;;;1.63;;
34960;SDS011;30789;52.030;7.110;2022-07-22T05:57:12;4.22;;;1.90;;
34960;SDS011;30789;52.030;7.110;2022-07-22T05:59:38;4.85;;;1.30;;
34960;SDS011;30789;52.030;7.110;2022-07-22T06:02:05;4.30;;;1.30;;
34960;SDS011;30789;52.030;7.110;2022-07-22T06:04:32;4.43;;;1.55;;
34960;SDS011;30789;52.030;7.110;2022-07-22T06:06:58;4.55;;;1.77;;
34960;SDS011;30789;52.030;7.110;2022-07-22T06:09:24;2.88;;;1.40;;
34960;SDS011;30789;52.030;7.110;2022-07-22T06:11:52;5.72;;;1.58;;
34960;SDS011;30789;52.030;7.110;2022-07-22T06:14:18;3.72;;;1.80;;
34960;SDS011;30789;52.030;7.110;2022-07-22T06:16:44;3.53;;;1.60;;
34960;SDS011;30789;52.030;7.110;2022-07-22T06:19:11;2.22;;;1.27;;
34960;SDS011;30789;52.030;7.110;2022-07-22T06:21:37;2.60;;;0.98;;
34960;SDS011;30789;52.030;7.110;2022-07-22T06:24:05;4.70;;;1.50;;
34960;SDS011;30789;52.030;7.110;2022-07-22T06:26:31;6.15;;;1.30;;
34960;SDS011;30789;52.030;7.110;2022-07-22T06:28:59;4.63;;;1.38;;
34960;SDS011;30789;52.030;7.110;2022-07-22T06:31:25;3.72;;;1.30;;
34960;SDS011;30789;52.030;7.110;2022-07-22T06:33:52;3.75;;;1.13;;
34960;SDS011;30789;52.030;7.110;2022-07-22T06:36:18;2.50;;;1.00;;
34960;SDS011;30789;52.030;7.110;2022-07-22T06:38:44;2.65;;;0.70;;
34960;SDS011;30789;52.030;7.110;2022-07-22T06:41:11;4.38;;;0.93;;
34960;SDS011;30789;52.030;7.110;2022-07-22T06:43:38;2.33;;;0.73;;
34960;SDS011;30789;52.030;7.110;2022-07-22T06:46:06;3.60;;;1.35;;
34960;SDS011;30789;52.030;7.110;2022-07-22T06:48:32;2.25;;;0.93;;
34960;SDS011;30789;52.030;7.110;2022-07-22T06:50:58;1.15;;;0.73;;
34960;SDS011;30789;52.030;7.110;2022-07-22T06:53:25;3.25;;;0.75;;
34960;SDS011;30789;52.030;7.110;2022-07-22T06:55:51;1.00;;;0.90;;
34960;SDS011;30789;52.030;7.110;2022-07-22T06:58:18;3.45;;;0.90;;
34960;SDS011;30789;52.030;7.110;2022-07-22T07:00:44;3.35;;;0.90;;
34960;SDS011;30789;52.030;7.110;2022-07-22T07:03:12;3.08;;;0.70;;
34960;SDS011;30789;52.030;7.110;2022-07-22T07:05:38;1.88;;;0.95;;
34960;SDS011;30789;52.030;7.110;2022-07-22T07:08:05;2.08;;;1.00;;
34960;SDS011;30789;52.030;7.110;2022-07-22T07:10:31;2.70;;;0.98;;
34960;SDS011;30789;52.030;7.110;2022-07-22T07:12:57;2.92;;;0.52;;
34960;SDS011;30789;52.030;7.110;2022-07-22T07:15:26;1.40;;;0.75;;
34960;SDS011;30789;52.030;7.110;2022-07-22T07:17:53;4.85;;;0.80;;
34960;SDS011;30789;52.030;7.110;2022-07-22T07:20:21;1.50;;;0.70;;
34960;SDS011;30789;52.030;7.110;2022-07-22T07:22:47;1.75;;;0.70;;
34960;SDS011;30789;52.030;7.110;2022-07-22T07:25:14;2.80;;;0.70;;
34960;SDS011;30789;52.030;7.110;2022-07-22T07:27:40;2.72;;;1.00;;
34960;SDS011;30789;52.030;7.110;2022-07-22T07:30:07;2.65;;;0.88;;
34960;SDS011;30789;52.030;7.110;2022-07-22T07:32:33;1.25;;;0.73;;
34960;SDS011;30789;52.030;7.110;2022-07-22T07:35:00;1.95;;;0.57;;
34960;SDS011;30789;52.030;7.110;2022-07-22T07:37:27;2.80;;;1.00;;
34960;SDS011;30789;52.030;7.110;2022-07-22T07:39:54;2.95;;;0.90;;
34960;SDS011;30789;52.030;7.110;2022-07-22T07:42:20;2.55;;;0.77;;
34960;SDS011;30789;52.030;7.110;2022-07-22T07:44:46;2.03;;;0.80;;
34960;SDS011;30789;52.030;7.110;2022-07-22T07:47:13;3.15;;;1.10;;
34960;SDS011;30789;52.030;7.110;2022-07-22T07:49:42;1.85;;;0.90;;
34960;SDS011;30789;52.030;7.110;2022-07-22T07:52:08;1.27;;;0.73;;
34960;SDS011;30789;52.030;7.110;2022-07-22T07:54:36;2.42;;;0.90;;
34960;SDS011;30789;52.030;7.110;2022-07-22T07:57:03;3.08;;;0.80;;
34960;SDS011;30789;52.030;7.110;2022-07-22T07:59:30;3.67;;;0.82;;
34960;SDS011;30789;52.030;7.110;2022-07-22T08:01:57;2.95;;;1.10;;
34960;SDS011;30789;52.030;7.110;2022-07-22T08:04:23;1.40;;;1.10;;
34960;SDS011;30789;52.030;7.110;2022-07-22T08:06:50;1.30;;;0.80;;
34960;SDS011;30789;52.030;7.110;2022-07-22T08:09:16;2.90;;;0.88;;
34960;SDS011;30789;52.030;7.110;2022-07-22T08:11:44;1.50;;;0.70;;
34960;SDS011;30789;52.030;7.110;2022-07-22T08:14:10;1.17;;;0.77;;
34960;SDS011;30789;52.030;7.110;2022-07-22T08:16:37;3.15;;;1.02;;
34960;SDS011;30789;52.030;7.110;2022-07-22T08:19:03;3.05;;;1.00;;
34960;SDS011;30789;52.030;7.110;2022-07-22T08:21:30;2.30;;;0.90;;
34960;SDS011;30789;52.030;7.110;2022-07-22T08:23:56;2.53;;;1.00;;
34960;SDS011;30789;52.030;7.110;2022-07-22T08:26:22;2.10;;;1.13;;
34960;SDS011;30789;52.030;7.110;2022-07-22T08:28:50;5.45;;;1.02;;
34960;SDS011;30789;52.030;7.110;2022-07-22T08:31:16;2.00;;;1.10;;
34960;SDS011;30789;52.030;7.110;2022-07-22T08:33:43;4.70;;;1.13;;
34960;SDS011;30789;52.030;7.110;2022-07-22T08:36:09;2.13;;;1.13;;
34960;SDS011;30789;52.030;7.110;2022-07-22T08:38:35;4.38;;;0.90;;
34960;SDS011;30789;52.030;7.110;2022-07-22T08:41:02;1.95;;;0.80;;
34960;SDS011;30789;52.030;7.110;2022-07-22T08:43:29;5.10;;;0.80;;
34960;SDS011;30789;52.030;7.110;2022-07-22T08:45:57;1.40;;;0.75;;
34960;SDS011;30789;52.030;7.110;2022-07-22T08:48:24;2.50;;;0.85;;
34960;SDS011;30789;52.030;7.110;2022-07-22T08:50:51;2.08;;;0.70;;
34960;SDS011;30789;52.030;7.110;2022-07-22T08:53:17;1.45;;;0.60;;
34960;SDS011;30789;52.030;7.110;2022-07-22T08:55:43;4.72;;;1.00;;
34960;SDS011;30789;52.030;7.110;2022-07-22T08:58:10;4.43;;;0.98;;
34960;SDS011;30789;52.030;7.110;2022-07-22T09:00:37;2.28;;;0.85;;
34960;SDS011;30789;52.030;7.110;2022-07-22T09:03:17;4.13;;;1.08;;
34960;SDS011;30789;52.030;7.110;2022-07-22T09:05:43;2.70;;;0.80;;
34960;SDS011;30789;52.030;7.110;2022-07-22T09:08:09;1.50;;;0.93;;
34960;SDS011;30789;52.030;7.110;2022-07-22T09:10:36;2.60;;;1.02;;
34960;SDS011;30789;52.030;7.110;2022-07-22T09:13:03;2.45;;;0.85;;
34960;SDS011;30789;52.030;7.110;2022-07-22T09:15:30;3.03;;;1.05;;
34960;SDS011;30789;52.030;7.110;2022-07-22T09:17:59;3.42;;;0.82;;
34960;SDS011;30789;52.030;7.110;2022-07-22T09:20:27;2.47;;;0.93;;
34960;SDS011;30789;52.030;7.110;2022-07-22T09:22:53;2.17;;;1.17;;
34960;SDS011;30789;52.030;7.110;2022-07-22T09:25:20;1.52;;;0.95;;
34960;SDS011;30789;52.030;7.110;2022-07-22T09:27:48;1.25;;;0.88;;
34960;SDS011;30789;52.030;7.110;2022-07-22T09:30:15;2.95;;;1.02;;
34960;SDS011;30789;52.030;7.110;2022-07-22T09:32:43;2.22;;;0.85;;
34960;SDS011;30789;52.030;7.110;2022-07-22T09:35:09;3.08;;;0.95;;
34960;SDS011;30789;52.030;7.110;2022-07-22T09:37:37;2.90;;;1.10;;
34960;SDS011;30789;52.030;7.110;2022-07-22T09:40:13;1.90;;;1.00;;
34960;SDS011;30789;52.030;7.110;2022-07-22T09:42:43;1.98;;;0.73;;
34960;SDS011;30789;52.030;7.110;2022-07-22T09:45:10;1.70;;;0.98;;
34960;SDS011;30789;52.030;7.110;2022-07-22T09:47:36;2.33;;;1.00;;
34960;SDS011;30789;52.030;7.110;2022-07-22T09:50:09;2.55;;;1.00;;
34960;SDS011;30789;52.030;7.110;2022-07-22T09:52:40;2.40;;;1.25;;
34960;SDS011;30789;52.030;7.110;2022-07-22T09:55:07;1.85;;;1.00;;
34960;SDS011;30789;52.030;7.110;2022-07-22T09:57:34;2.33;;;0.98;;
34960;SDS011;30789;52.030;7.110;2022-07-22T10:00:00;5.53;;;1.58;;
34960;SDS011;30789;52.030;7.110;2022-07-22T10:02:27;2.70;;;1.10;;
34960;SDS011;30789;52.030;7.110;2022-07-22T10:04:53;2.00;;;1.15;;
34960;SDS011;30789;52.030;7.110;2022-07-22T10:07:20;4.60;;;2.33;;
34960;SDS011;30789;52.030;7.110;2022-07-22T10:09:49;4.93;;;2.92;;
34960;SDS011;30789;52.030;7.110;2022-07-22T10:12:16;4.68;;;2.63;;
34960;SDS011;30789;52.030;7.110;2022-07-22T10:14:43;3.40;;;2.13;;
34960;SDS011;30789;52.030;7.110;2022-07-22T10:17:11;3.58;;;1.85;;
34960;SDS011;30789;52.030;7.110;2022-07-22T10:19:38;3.03;;;2.10;;
34960;SDS011;30789;52.030;7.110;2022-07-22T10:22:04;4.20;;;1.27;;
34960;SDS011;30789;52.030;7.110;2022-07-22T10:24:30;5.63;;;1.40;;
34960;SDS011;30789;52.030;7.110;2022-07-22T10:26:58;3.88;;;1.50;;
34960;SDS011;30789;52.030;7.110;2022-07-22T10:29:27;3.70;;;1.40;;
34960;SDS011;30789;52.030;7.110;2022-07-22T10:34:38;2.83;;;1.63;;
34960;SDS011;30789;52.030;7.110;2022-07-22T10:37:08;3.95;;;1.40;;
34960;SDS011;30789;52.030;7.110;2022-07-22T10:40:10;2.58;;;1.05;;
34960;SDS011;30789;52.030;7.110;2022-07-22T10:45:30;5.13;;;1.30;;
34960;SDS011;30789;52.030;7.110;2022-07-22T10:47:57;3.30;;;1.20;;
34960;SDS011;30789;52.030;7.110;2022-07-22T10:53:05;4.88;;;1.65;;
34960;SDS011;30789;52.030;7.110;2022-07-22T10:55:32;2.55;;;1.35;;
34960;SDS011;30789;52.030;7.110;2022-07-22T10:57:59;2.88;;;1.20;;
34960;SDS011;30789;52.030;7.110;2022-07-22T11:00:25;2.38;;;1.33;;
34960;SDS011;30789;52.030;7.110;2022-07-22T11:02:53;4.57;;;1.17;;
34960;SDS011;30789;52.030;7.110;2022-07-22T11:05:24;2.67;;;1.40;;
34960;SDS011;30789;52.030;7.110;2022-07-22T11:07:50;2.00;;;1.13;;
34960;SDS011;30789;52.030;7.110;2022-07-22T11:10:17;1.58;;;0.77;;
34960;SDS011;30789;52.030;7.110;2022-07-22T11:12:44;2.97;;;1.40;;
34960;SDS011;30789;52.030;7.110;2022-07-22T11:15:11;3.22;;;1.48;;
34960;SDS011;30789;52.030;7.110;2022-07-22T11:17:38;3.42;;;1.40;;
34960;SDS011;30789;52.030;7.110;2022-07-22T11:20:07;3.25;;;1.25;;
34960;SDS011;30789;52.030;7.110;2022-07-22T11:22:34;2.15;;;1.48;;
34960;SDS011;30789;52.030;7.110;2022-07-22T11:25:01;3.60;;;1.80;;
34960;SDS011;30789;52.030;7.110;2022-07-22T11:27:28;2.28;;;1.23;;
34960;SDS011;30789;52.030;7.110;2022-07-22T11:29:54;3.13;;;1.42;;
34960;SDS011;30789;52.030;7.110;2022-07-22T11:32:22;1.73;;;1.42;;
34960;SDS011;30789;52.030;7.110;2022-07-22T11:34:48;2.25;;;1.10;;
34960;SDS011;30789;52.030;7.110;2022-07-22T11:37:16;2.85;;;1.50;;
34960;SDS011;30789;52.030;7.110;2022-07-22T11:39:43;2.95;;;1.42;;
34960;SDS011;30789;52.030;7.110;2022-07-22T11:42:09;1.42;;;1.33;;
34960;SDS011;30789;52.030;7.110;2022-07-22T11:44:36;2.17;;;1.33;;
34960;SDS011;30789;52.030;7.110;2022-07-22T11:47:04;1.70;;;1.05;;
34960;SDS011;30789;52.030;7.110;2022-07-22T11:49:31;3.35;;;1.65;;
34960;SDS011;30789;52.030;7.110;2022-07-22T11:51:58;7.70;;;2.08;;
34960;SDS011;30789;52.030;7.110;2022-07-22T11:54:26;4.22;;;1.45;;
34960;SDS011;30789;52.030;7.110;2022-07-22T11:56:52;3.80;;;1.70;;
34960;SDS011;30789;52.030;7.110;2022-07-22T11:59:19;7.07;;;1.90;;
34960;SDS011;30789;52.030;7.110;2022-07-22T12:01:46;2.35;;;1.42;;
34960;SDS011;30789;52.030;7.110;2022-07-22T12:04:14;2.60;;;1.52;;
34960;SDS011;30789;52.030;7.110;2022-07-22T12:06:41;5.18;;;1.63;;
34960;SDS011;30789;52.030;7.110;2022-07-22T12:09:08;5.53;;;1.70;;
34960;SDS011;30789;52.030;7.110;2022-07-22T12:11:37;3.08;;;1.40;;
34960;SDS011;30789;52.030;7.110;2022-07-22T12:14:04;1.85;;;1.08;;
34960;SDS011;30789;52.030;7.110;2022-07-22T12:16:31;2.75;;;1.45;;
34960;SDS011;30789;52.030;7.110;2022-07-22T12:18:58;2.30;;;1.45;;
34960;SDS011;30789;52.030;7.110;2022-07-22T12:21:24;1.90;;;1.40;;
34960;SDS011;30789;52.030;7.110;2022-07-22T12:23:52;1.90;;;1.40;;
34960;SDS011;30789;52.030;7.110;2022-07-22T12:26:18;1.70;;;1.48;;
34960;SDS011;30789;52.030;7.110;2022-07-22T12:28:46;3.10;;;1.70;;
34960;SDS011;30789;52.030;7.110;2022-07-22T12:31:12;1.23;;;1.10;;
34960;SDS011;30789;52.030;7.110;2022-07-22T12:33:46;2.28;;;1.50;;
34960;SDS011;30789;52.030;7.110;2022-07-22T12:36:12;2.88;;;1.40;;
34960;SDS011;30789;52.030;7.110;2022-07-22T12:38:39;3.08;;;1.40;;
34960;SDS011;30789;52.030;7.110;2022-07-22T12:41:22;2.78;;;1.30;;
34960;SDS011;30789;52.030;7.110;2022-07-22T12:43:50;4.03;;;1.70;;
34960;SDS011;30789;52.030;7.110;2022-07-22T12:46:16;4.55;;;1.70;;
34960;SDS011;30789;52.030;7.110;2022-07-22T12:48:48;2.65;;;1.50;;
34960;SDS011;30789;52.030;7.110;2022-07-22T12:53:40;2.58;;;1.50;;
34960;SDS011;30789;52.030;7.110;2022-07-22T12:56:06;2.60;;;1.50;;
34960;SDS011;30789;52.030;7.110;2022-07-22T12:58:36;2.35;;;1.60;;
34960;SDS011;30789;52.030;7.110;2022-07-22T13:01:06;4.40;;;1.52;;
34960;SDS011;30789;52.030;7.110;2022-07-22T13:03:32;2.40;;;1.50;;
34960;SDS011;30789;52.030;7.110;2022-07-22T13:05:59;5.22;;;1.50;;
34960;SDS011;30789;52.030;7.110;2022-07-22T13:08:26;2.05;;;1.30;;
34960;SDS011;30789;52.030;7.110;2022-07-22T13:10:53;2.75;;;1.42;;
34960;SDS011;30789;52.030;7.110;2022-07-22T13:13:20;2.10;;;1.50;;
34960;SDS011;30789;52.030;7.110;2022-07-22T13:15:46;2.17;;;1.58;;
34960;SDS011;30789;52.030;7.110;2022-07-22T13:18:14;4.15;;;2.13;;
34960;SDS011;30789;52.030;7.110;2022-07-22T13:20:40;2.53;;;2.05;;
34960;SDS011;30789;52.030;7.110;2022-07-22T13:23:07;3.55;;;1.63;;
34960;SDS011;30789;52.030;7.110;2022-07-22T13:25:33;3.22;;;1.52;;
34960;SDS011;30789;52.030;7.110;2022-07-22T13:28:00;4.22;;;1.77;;
34960;SDS011;30789;52.030;7.110;2022-07-22T13:30:26;3.80;;;2.03;;
34960;SDS011;30789;52.030;7.110;2022-07-22T13:32:53;3.15;;;2.00;;
34960;SDS011;30789;52.030;7.110;2022-07-22T13:35:21;4.13;;;1.70;;
34960;SDS011;30789;52.030;7.110;2022-07-22T13:37:47;4.50;;;1.73;;
34960;SDS011;30789;52.030;7.110;2022-07-22T13:40:14;3.47;;;1.50;;
34960;SDS011;30789;52.030;7.110;2022-07-22T13:42:40;3.00;;;1.88;;
34960;SDS011;30789;52.030;7.110;2022-07-22T13:45:07;5.00;;;1.88;;
34960;SDS011;30789;52.030;7.110;2022-07-22T13:47:34;2.53;;;1.83;;
34960;SDS011;30789;52.030;7.110;2022-07-22T13:50:01;2.95;;;1.95;;
34960;SDS011;30789;52.030;7.110;2022-07-22T13:52:29;2.70;;;1.65;;
34960;SDS011;30789;52.030;7.110;2022-07-22T13:54:55;4.03;;;1.90;;
34960;SDS011;30789;52.030;7.110;2022-07-22T13:57:21;3.28;;;2.10;;
34960;SDS011;30789;52.030;7.110;2022-07-22T13:59:48;3.10;;;1.70;;
34960;SDS011;30789;52.030;7.110;2022-07-22T14:02:14;4.47;;;1.73;;
34960;SDS011;30789;52.030;7.110;2022-07-22T14:04:40;4.15;;;1.98;;
34960;SDS011;30789;52.030;7.110;2022-07-22T14:07:07;2.38;;;1.63;;
34960;SDS011;30789;52.030;7.110;2022-07-22T14:09:34;4.15;;;1.75;;
34960;SDS011;30789;52.030;7.110;2022-07-22T14:12:01;4.07;;;1.70;;
34960;SDS011;30789;52.030;7.110;2022-07-22T14:14:27;2.15;;;1.55;;
34960;SDS011;30789;52.030;7.110;2022-07-22T14:16:53;3.45;;;1.60;;
34960;SDS011;30789;52.030;7.110;2022-07-22T14:19:19;8.02;;;2.75;;
34960;SDS011;30789;52.030;7.110;2022-07-22T14:21:46;9.02;;;3.67;;
34960;SDS011;30789;52.030;7.110;2022-07-22T14:24:13;25.10;;;5.75;;
34960;SDS011;30789;52.030;7.110;2022-07-22T14:26:40;8.73;;;3.13;;
34960;SDS011;30789;52.030;7.110;2022-07-22T14:29:07;2.30;;;1.48;;
34960;SDS011;30789;52.030;7.110;2022-07-22T14:31:34;11.13;;;3.50;;
34960;SDS011;30789;52.030;7.110;2022-07-22T14:34:00;3.72;;;2.05;;
34960;SDS011;30789;52.030;7.110;2022-07-22T14:36:26;2.80;;;1.27;;
34960;SDS011;30789;52.030;7.110;2022-07-22T14:38:53;3.13;;;1.35;;
34960;SDS011;30789;52.030;7.110;2022-07-22T14:41:19;1.92;;;1.50;;
34960;SDS011;30789;52.030;7.110;2022-07-22T14:43:47;2.67;;;1.45;;
34960;SDS011;30789;52.030;7.110;2022-07-22T14:46:13;2.25;;;1.38;;
34960;SDS011;30789;52.030;7.110;2022-07-22T14:48:40;3.80;;;1.30;;
34960;SDS011;30789;52.030;7.110;2022-07-22T14:51:06;3.55;;;1.42;;
34960;SDS011;30789;52.030;7.110;2022-07-22T14:53:33;3.60;;;1.60;;
34960;SDS011;30789;52.030;7.110;2022-07-22T14:55:59;1.83;;;1.35;;